sensor_id;sensor_type;location;lat;lon;timestamp;temperature;humidity
56542;DHT22;42438;53.174;6.730;2023-02-28T00:00:11;3.50;99.90
56542;DHT22;42438;53.174;6.730;2023-02-28T00:02:43;3.50;99.90
56542;DHT22;42438;53.174;6.730;2023-02-28T00:05:17;3.40;99.90
56542;DHT22;42438;53.174;6.730;2023-02-28T00:07:49;3.40;99.90
56542;DHT22;42438;53.174;6.730;2023-02-28T00:10:23;3.40;99.90
56542;DHT22;42438;53.174;6.730;2023-02-28T00:12:55;3.40;99.90
56542;DHT22;42438;53.174;6.730;2023-02-28T00:15:29;3.40;99.90
56542;DHT22;42438;53.174;6.730;2023-02-28T00:18:01;3.40;99.90
56542;DHT22;42438;53.174;6.730;2023-02-28T00:20:32;3.50;99.90
56542;DHT22;42438;53.174;6.730;2023-02-28T00:23:03;3.40;99.90
56542;DHT22;42438;53.174;6.730;2023-02-28T00:25:33;3.80;99.90
56542;DHT22;42438;53.174;6.730;2023-02-28T00:28:04;3.40;99.90
56542;DHT22;42438;53.174;6.730;2023-02-28T00:30:35;3.40;99.90
56542;DHT22;42438;53.174;6.730;2023-02-28T00:33:05;3.30;99.90
56542;DHT22;42438;53.174;6.730;2023-02-28T00:35:36;3.30;99.90
56542;DHT22;42438;53.174;6.730;2023-02-28T00:38:07;3.20;99.90
56542;DHT22;42438;53.174;6.730;2023-02-28T00:40:37;3.30;99.90
56542;DHT22;42438;53.174;6.730;2023-02-28T00:43:08;3.20;99.90
56542;DHT22;42438;53.174;6.730;2023-02-28T00:45:39;3.30;99.90
56542;DHT22;42438;53.174;6.730;2023-02-28T00:48:09;3.30;99.90
56542;DHT22;42438;53.174;6.730;2023-02-28T00:50:40;3.30;99.90
56542;DHT22;42438;53.174;6.730;2023-02-28T00:53:11;3.20;99.90
56542;DHT22;42438;53.174;6.730;2023-02-28T00:55:41;3.20;99.90
56542;DHT22;42438;53.174;6.730;2023-02-28T00:58:12;4.00;99.90
56542;DHT22;42438;53.174;6.730;2023-02-28T01:00:43;3.30;99.90
56542;DHT22;42438;53.174;6.730;2023-02-28T01:03:13;3.30;99.90
56542;DHT22;42438;53.174;6.730;2023-02-28T01:05:45;3.30;99.90
56542;DHT22;42438;53.174;6.730;2023-02-28T01:08:16;3.20;99.90
56542;DHT22;42438;53.174;6.730;2023-02-28T01:10:46;3.30;99.90
56542;DHT22;42438;53.174;6.730;2023-02-28T01:13:18;3.20;99.90
56542;DHT22;42438;53.174;6.730;2023-02-28T01:15:51;3.20;99.90
56542;DHT22;42438;53.174;6.730;2023-02-28T01:18:22;3.10;99.90
56542;DHT22;42438;53.174;6.730;2023-02-28T01:20:53;3.10;99.90
56542;DHT22;42438;53.174;6.730;2023-02-28T01:23:24;3.10;99.90
56542;DHT22;42438;53.174;6.730;2023-02-28T01:25:55;3.10;99.90
56542;DHT22;42438;53.174;6.730;2023-02-28T01:28:25;3.10;99.90
56542;DHT22;42438;53.174;6.730;2023-02-28T01:30:56;3.20;99.90
56542;DHT22;42438;53.174;6.730;2023-02-28T01:33:27;3.20;99.90
56542;DHT22;42438;53.174;6.730;2023-02-28T01:36:04;3.20;99.90
56542;DHT22;42438;53.174;6.730;2023-02-28T01:38:35;3.20;99.90
56542;DHT22;42438;53.174;6.730;2023-02-28T01:41:07;3.50;99.90
56542;DHT22;42438;53.174;6.730;2023-02-28T01:46:15;3.40;99.90
56542;DHT22;42438;53.174;6.730;2023-02-28T01:48:58;3.30;99.90
56542;DHT22;42438;53.174;6.730;2023-02-28T01:54:25;3.40;99.90
56542;DHT22;42438;53.174;6.730;2023-02-28T01:57:00;3.30;99.90
56542;DHT22;42438;53.174;6.730;2023-02-28T01:59:38;3.40;99.90
56542;DHT22;42438;53.174;6.730;2023-02-28T02:02:10;3.40;99.90
56542;DHT22;42438;53.174;6.730;2023-02-28T02:04:53;3.50;99.90
56542;DHT22;42438;53.174;6.730;2023-02-28T02:07:26;3.60;99.90
56542;DHT22;42438;53.174;6.730;2023-02-28T02:10:04;3.60;99.90
56542;DHT22;42438;53.174;6.730;2023-02-28T02:18:47;3.70;99.90
56542;DHT22;42438;53.174;6.730;2023-02-28T02:21:41;3.70;99.90
56542;DHT22;42438;53.174;6.730;2023-02-28T02:33:43;3.70;99.90
56542;DHT22;42438;53.174;6.730;2023-02-28T02:36:33;3.50;99.90
56542;DHT22;42438;53.174;6.730;2023-02-28T02:42:01;3.50;99.90
56542;DHT22;42438;53.174;6.730;2023-02-28T02:44:41;3.60;99.90
56542;DHT22;42438;53.174;6.730;2023-02-28T02:47:18;3.60;99.90
56542;DHT22;42438;53.174;6.730;2023-02-28T02:49:52;3.60;99.90
56542;DHT22;42438;53.174;6.730;2023-02-28T02:52:29;3.70;99.90
56542;DHT22;42438;53.174;6.730;2023-02-28T02:55:03;3.50;99.90
56542;DHT22;42438;53.174;6.730;2023-02-28T02:57:38;3.50;99.90
56542;DHT22;42438;53.174;6.730;2023-02-28T03:00:09;3.50;99.90
56542;DHT22;42438;53.174;6.730;2023-02-28T03:02:41;3.50;99.90
56542;DHT22;42438;53.174;6.730;2023-02-28T03:05:42;3.80;99.90
56542;DHT22;42438;53.174;6.730;2023-02-28T03:08:15;3.50;99.90
56542;DHT22;42438;53.174;6.730;2023-02-28T03:10:48;3.50;99.90
56542;DHT22;42438;53.174;6.730;2023-02-28T03:13:52;3.50;99.90
56542;DHT22;42438;53.174;6.730;2023-02-28T03:30:36;3.40;99.90
56542;DHT22;42438;53.174;6.730;2023-02-28T03:33:34;3.40;99.90
56542;DHT22;42438;53.174;6.730;2023-02-28T03:36:15;3.30;99.90
56542;DHT22;42438;53.174;6.730;2023-02-28T03:38:59;3.30;99.90
56542;DHT22;42438;53.174;6.730;2023-02-28T03:41:43;3.30;99.90
56542;DHT22;42438;53.174;6.730;2023-02-28T03:44:38;3.40;99.90
56542;DHT22;42438;53.174;6.730;2023-02-28T03:47:21;3.30;99.90
56542;DHT22;42438;53.174;6.730;2023-02-28T03:50:10;3.20;99.90
56542;DHT22;42438;53.174;6.730;2023-02-28T03:55:36;3.40;99.90
56542;DHT22;42438;53.174;6.730;2023-02-28T04:00:49;3.30;99.90
56542;DHT22;42438;53.174;6.730;2023-02-28T04:03:20;3.20;99.90
56542;DHT22;42438;53.174;6.730;2023-02-28T04:05:53;3.20;99.90
56542;DHT22;42438;53.174;6.730;2023-02-28T04:08:24;3.20;99.90
56542;DHT22;42438;53.174;6.730;2023-02-28T04:11:00;3.00;99.90
56542;DHT22;42438;53.174;6.730;2023-02-28T04:13:32;2.90;99.90
56542;DHT22;42438;53.174;6.730;2023-02-28T04:16:07;3.00;99.90
56542;DHT22;42438;53.174;6.730;2023-02-28T04:18:42;3.00;99.90
56542;DHT22;42438;53.174;6.730;2023-02-28T04:21:16;2.80;99.90
56542;DHT22;42438;53.174;6.730;2023-02-28T04:23:50;2.90;99.90
56542;DHT22;42438;53.174;6.730;2023-02-28T04:26:21;2.80;99.90
56542;DHT22;42438;53.174;6.730;2023-02-28T04:28:52;2.80;99.90
56542;DHT22;42438;53.174;6.730;2023-02-28T04:31:23;3.50;99.90
56542;DHT22;42438;53.174;6.730;2023-02-28T04:33:53;2.70;99.90
56542;DHT22;42438;53.174;6.730;2023-02-28T04:36:24;2.70;99.90
56542;DHT22;42438;53.174;6.730;2023-02-28T04:38:55;2.90;99.90
56542;DHT22;42438;53.174;6.730;2023-02-28T04:41:25;2.90;99.90
56542;DHT22;42438;53.174;6.730;2023-02-28T04:43:56;2.90;99.90
56542;DHT22;42438;53.174;6.730;2023-02-28T04:46:27;3.00;99.90
56542;DHT22;42438;53.174;6.730;2023-02-28T04:48:58;2.70;99.90
56542;DHT22;42438;53.174;6.730;2023-02-28T04:51:29;3.30;99.90
56542;DHT22;42438;53.174;6.730;2023-02-28T04:54:00;2.80;99.90
56542;DHT22;42438;53.174;6.730;2023-02-28T04:56:30;2.80;99.90
56542;DHT22;42438;53.174;6.730;2023-02-28T04:59:01;2.70;99.90
56542;DHT22;42438;53.174;6.730;2023-02-28T05:01:33;2.80;99.90
56542;DHT22;42438;53.174;6.730;2023-02-28T05:04:04;2.80;99.90
56542;DHT22;42438;53.174;6.730;2023-02-28T05:06:35;2.80;99.90
56542;DHT22;42438;53.174;6.730;2023-02-28T05:09:05;2.70;99.90
56542;DHT22;42438;53.174;6.730;2023-02-28T05:11:36;2.70;99.90
56542;DHT22;42438;53.174;6.730;2023-02-28T05:14:13;2.70;99.90
56542;DHT22;42438;53.174;6.730;2023-02-28T05:16:44;2.70;99.90
56542;DHT22;42438;53.174;6.730;2023-02-28T05:19:14;2.70;99.90
56542;DHT22;42438;53.174;6.730;2023-02-28T05:21:53;2.70;99.90
56542;DHT22;42438;53.174;6.730;2023-02-28T05:24:24;2.70;99.90
56542;DHT22;42438;53.174;6.730;2023-02-28T05:26:55;2.90;99.90
56542;DHT22;42438;53.174;6.730;2023-02-28T05:29:26;2.90;99.90
56542;DHT22;42438;53.174;6.730;2023-02-28T05:31:56;2.70;99.90
56542;DHT22;42438;53.174;6.730;2023-02-28T05:34:27;2.90;99.90
56542;DHT22;42438;53.174;6.730;2023-02-28T05:36:57;2.80;99.90
56542;DHT22;42438;53.174;6.730;2023-02-28T05:39:28;2.70;99.90
56542;DHT22;42438;53.174;6.730;2023-02-28T05:41:59;2.70;99.90
56542;DHT22;42438;53.174;6.730;2023-02-28T05:44:30;2.60;99.90
56542;DHT22;42438;53.174;6.730;2023-02-28T05:47:01;2.60;99.90
56542;DHT22;42438;53.174;6.730;2023-02-28T05:49:31;2.80;99.90
56542;DHT22;42438;53.174;6.730;2023-02-28T05:52:02;2.80;99.90
56542;DHT22;42438;53.174;6.730;2023-02-28T05:54:33;2.80;99.90
56542;DHT22;42438;53.174;6.730;2023-02-28T05:57:03;2.80;99.90
56542;DHT22;42438;53.174;6.730;2023-02-28T05:59:34;2.50;99.90
56542;DHT22;42438;53.174;6.730;2023-02-28T06:02:06;2.70;99.90
56542;DHT22;42438;53.174;6.730;2023-02-28T06:04:41;3.40;99.90
56542;DHT22;42438;53.174;6.730;2023-02-28T06:07:12;2.80;99.90
56542;DHT22;42438;53.174;6.730;2023-02-28T06:09:43;2.80;99.90
56542;DHT22;42438;53.174;6.730;2023-02-28T06:12:13;2.90;99.90
56542;DHT22;42438;53.174;6.730;2023-02-28T06:14:44;2.70;99.90
56542;DHT22;42438;53.174;6.730;2023-02-28T06:17:15;2.50;99.90
56542;DHT22;42438;53.174;6.730;2023-02-28T06:19:45;2.70;99.90
56542;DHT22;42438;53.174;6.730;2023-02-28T06:22:16;3.50;99.90
56542;DHT22;42438;53.174;6.730;2023-02-28T06:24:47;2.70;99.90
56542;DHT22;42438;53.174;6.730;2023-02-28T06:27:18;2.50;99.90
56542;DHT22;42438;53.174;6.730;2023-02-28T06:29:54;2.50;99.90
56542;DHT22;42438;53.174;6.730;2023-02-28T06:32:25;2.40;99.90
56542;DHT22;42438;53.174;6.730;2023-02-28T06:34:56;2.40;99.90
56542;DHT22;42438;53.174;6.730;2023-02-28T06:37:28;2.60;99.90
56542;DHT22;42438;53.174;6.730;2023-02-28T06:40:00;2.40;99.90
56542;DHT22;42438;53.174;6.730;2023-02-28T06:42:31;2.40;99.90
56542;DHT22;42438;53.174;6.730;2023-02-28T06:45:02;2.50;99.90
56542;DHT22;42438;53.174;6.730;2023-02-28T06:47:40;2.50;99.90
56542;DHT22;42438;53.174;6.730;2023-02-28T06:50:12;3.00;99.90
56542;DHT22;42438;53.174;6.730;2023-02-28T06:52:43;2.40;99.90
56542;DHT22;42438;53.174;6.730;2023-02-28T06:55:14;2.60;99.90
56542;DHT22;42438;53.174;6.730;2023-02-28T06:57:44;2.40;99.90
56542;DHT22;42438;53.174;6.730;2023-02-28T07:00:15;3.30;99.90
56542;DHT22;42438;53.174;6.730;2023-02-28T07:02:46;2.60;99.90
56542;DHT22;42438;53.174;6.730;2023-02-28T07:05:17;2.50;99.90
56542;DHT22;42438;53.174;6.730;2023-02-28T07:07:48;2.30;99.90
56542;DHT22;42438;53.174;6.730;2023-02-28T07:10:19;3.20;99.90
56542;DHT22;42438;53.174;6.730;2023-02-28T07:12:49;2.40;99.90
56542;DHT22;42438;53.174;6.730;2023-02-28T07:15:21;2.50;99.90
56542;DHT22;42438;53.174;6.730;2023-02-28T07:17:52;3.10;99.90
56542;DHT22;42438;53.174;6.730;2023-02-28T07:20:23;2.60;99.90
56542;DHT22;42438;53.174;6.730;2023-02-28T07:22:54;2.50;99.90
56542;DHT22;42438;53.174;6.730;2023-02-28T07:25:29;2.40;99.90
56542;DHT22;42438;53.174;6.730;2023-02-28T07:27:59;2.60;99.90
56542;DHT22;42438;53.174;6.730;2023-02-28T07:30:30;2.40;99.90
56542;DHT22;42438;53.174;6.730;2023-02-28T07:33:01;2.40;99.90
56542;DHT22;42438;53.174;6.730;2023-02-28T07:35:32;2.50;99.90
56542;DHT22;42438;53.174;6.730;2023-02-28T07:38:03;2.40;99.90
56542;DHT22;42438;53.174;6.730;2023-02-28T07:40:35;2.70;99.90
56542;DHT22;42438;53.174;6.730;2023-02-28T07:43:05;2.60;99.90
56542;DHT22;42438;53.174;6.730;2023-02-28T07:45:36;2.50;99.90
56542;DHT22;42438;53.174;6.730;2023-02-28T07:48:07;2.50;99.90
56542;DHT22;42438;53.174;6.730;2023-02-28T07:50:40;2.70;99.90
56542;DHT22;42438;53.174;6.730;2023-02-28T07:53:10;2.60;99.90
56542;DHT22;42438;53.174;6.730;2023-02-28T07:55:41;2.60;99.90
56542;DHT22;42438;53.174;6.730;2023-02-28T07:58:12;2.90;99.90
56542;DHT22;42438;53.174;6.730;2023-02-28T08:00:42;2.90;99.90
56542;DHT22;42438;53.174;6.730;2023-02-28T08:03:13;3.10;99.90
56542;DHT22;42438;53.174;6.730;2023-02-28T08:05:44;3.10;99.90
56542;DHT22;42438;53.174;6.730;2023-02-28T08:08:15;3.20;99.90
56542;DHT22;42438;53.174;6.730;2023-02-28T08:10:46;3.30;99.90
56542;DHT22;42438;53.174;6.730;2023-02-28T08:13:17;3.30;99.90
56542;DHT22;42438;53.174;6.730;2023-02-28T08:15:48;3.40;99.90
56542;DHT22;42438;53.174;6.730;2023-02-28T08:18:19;3.70;99.90
56542;DHT22;42438;53.174;6.730;2023-02-28T08:20:49;3.40;99.90
56542;DHT22;42438;53.174;6.730;2023-02-28T08:23:20;4.40;99.90
56542;DHT22;42438;53.174;6.730;2023-02-28T08:25:55;3.70;99.90
56542;DHT22;42438;53.174;6.730;2023-02-28T08:28:26;4.00;99.90
56542;DHT22;42438;53.174;6.730;2023-02-28T08:30:57;3.90;99.90
56542;DHT22;42438;53.174;6.730;2023-02-28T08:33:27;4.20;99.90
56542;DHT22;42438;53.174;6.730;2023-02-28T08:35:58;4.00;99.90
56542;DHT22;42438;53.174;6.730;2023-02-28T08:38:29;4.10;99.90
56542;DHT22;42438;53.174;6.730;2023-02-28T08:41:05;4.10;99.90
56542;DHT22;42438;53.174;6.730;2023-02-28T08:43:37;4.20;99.90
56542;DHT22;42438;53.174;6.730;2023-02-28T08:46:12;4.10;99.90
56542;DHT22;42438;53.174;6.730;2023-02-28T08:48:43;4.10;99.90
56542;DHT22;42438;53.174;6.730;2023-02-28T08:51:16;4.30;99.90
56542;DHT22;42438;53.174;6.730;2023-02-28T08:53:48;4.20;99.90
56542;DHT22;42438;53.174;6.730;2023-02-28T08:56:20;4.30;99.90
56542;DHT22;42438;53.174;6.730;2023-02-28T08:58:51;4.50;99.90
56542;DHT22;42438;53.174;6.730;2023-02-28T09:01:25;4.60;99.90
56542;DHT22;42438;53.174;6.730;2023-02-28T09:03:58;4.60;99.90
56542;DHT22;42438;53.174;6.730;2023-02-28T09:06:29;4.80;99.90
56542;DHT22;42438;53.174;6.730;2023-02-28T09:09:00;5.20;99.90
56542;DHT22;42438;53.174;6.730;2023-02-28T09:11:31;5.30;99.90
56542;DHT22;42438;53.174;6.730;2023-02-28T09:14:03;5.00;99.90
56542;DHT22;42438;53.174;6.730;2023-02-28T09:16:34;5.20;99.90
56542;DHT22;42438;53.174;6.730;2023-02-28T09:19:05;5.10;99.90
56542;DHT22;42438;53.174;6.730;2023-02-28T09:21:36;5.20;99.90
56542;DHT22;42438;53.174;6.730;2023-02-28T09:24:07;5.10;99.90
56542;DHT22;42438;53.174;6.730;2023-02-28T09:26:38;5.00;99.90
56542;DHT22;42438;53.174;6.730;2023-02-28T09:29:09;4.80;99.90
56542;DHT22;42438;53.174;6.730;2023-02-28T09:31:41;4.90;99.90
56542;DHT22;42438;53.174;6.730;2023-02-28T09:34:12;4.90;99.90
56542;DHT22;42438;53.174;6.730;2023-02-28T09:36:42;5.00;99.90
56542;DHT22;42438;53.174;6.730;2023-02-28T09:39:13;5.10;99.90
56542;DHT22;42438;53.174;6.730;2023-02-28T09:41:48;5.10;99.90
56542;DHT22;42438;53.174;6.730;2023-02-28T09:44:28;5.20;99.90
56542;DHT22;42438;53.174;6.730;2023-02-28T09:47:18;5.10;99.90
56542;DHT22;42438;53.174;6.730;2023-02-28T09:49:52;5.30;99.90
56542;DHT22;42438;53.174;6.730;2023-02-28T09:52:30;5.30;99.90
56542;DHT22;42438;53.174;6.730;2023-02-28T09:57:56;5.40;99.90
56542;DHT22;42438;53.174;6.730;2023-02-28T10:00:31;5.50;99.90
56542;DHT22;42438;53.174;6.730;2023-02-28T10:03:20;5.60;99.90
56542;DHT22;42438;53.174;6.730;2023-02-28T10:08:37;5.90;99.90
56542;DHT22;42438;53.174;6.730;2023-02-28T10:11:15;6.00;99.90
56542;DHT22;42438;53.174;6.730;2023-02-28T10:14:14;5.30;99.90
56542;DHT22;42438;53.174;6.730;2023-02-28T10:16:50;6.00;99.90
56542;DHT22;42438;53.174;6.730;2023-02-28T10:19:38;6.30;99.90
56542;DHT22;42438;53.174;6.730;2023-02-28T10:22:20;6.30;99.90
56542;DHT22;42438;53.174;6.730;2023-02-28T10:24:53;6.40;99.90
56542;DHT22;42438;53.174;6.730;2023-02-28T10:27:28;6.50;99.90
56542;DHT22;42438;53.174;6.730;2023-02-28T10:30:01;6.50;99.90
56542;DHT22;42438;53.174;6.730;2023-02-28T10:32:34;6.70;99.90
56542;DHT22;42438;53.174;6.730;2023-02-28T10:37:47;6.90;99.90
56542;DHT22;42438;53.174;6.730;2023-02-28T10:51:07;7.00;99.90
56542;DHT22;42438;53.174;6.730;2023-02-28T10:53:52;7.10;99.90
56542;DHT22;42438;53.174;6.730;2023-02-28T10:56:24;7.10;99.90
56542;DHT22;42438;53.174;6.730;2023-02-28T10:59:03;7.10;99.90
56542;DHT22;42438;53.174;6.730;2023-02-28T11:01:37;7.10;99.90
56542;DHT22;42438;53.174;6.730;2023-02-28T11:09:38;7.20;99.90
56542;DHT22;42438;53.174;6.730;2023-02-28T11:12:28;7.30;99.90
56542;DHT22;42438;53.174;6.730;2023-02-28T11:15:06;7.40;99.90
56542;DHT22;42438;53.174;6.730;2023-02-28T11:20:42;7.70;99.90
56542;DHT22;42438;53.174;6.730;2023-02-28T11:23:18;7.80;99.90
56542;DHT22;42438;53.174;6.730;2023-02-28T11:25:52;7.90;99.90
56542;DHT22;42438;53.174;6.730;2023-02-28T11:28:29;8.00;99.90
56542;DHT22;42438;53.174;6.730;2023-02-28T11:33:55;8.10;99.90
56542;DHT22;42438;53.174;6.730;2023-02-28T11:36:30;8.00;99.90
56542;DHT22;42438;53.174;6.730;2023-02-28T11:39:09;7.70;99.90
56542;DHT22;42438;53.174;6.730;2023-02-28T11:45:18;7.60;99.90
56542;DHT22;42438;53.174;6.730;2023-02-28T11:48:08;7.60;99.90
56542;DHT22;42438;53.174;6.730;2023-02-28T11:56:12;7.70;99.90
56542;DHT22;42438;53.174;6.730;2023-02-28T12:09:56;8.60;99.90
56542;DHT22;42438;53.174;6.730;2023-02-28T12:12:43;8.60;99.90
56542;DHT22;42438;53.174;6.730;2023-02-28T12:21:38;8.80;99.90
56542;DHT22;42438;53.174;6.730;2023-02-28T12:26:52;8.50;99.90
56542;DHT22;42438;53.174;6.730;2023-02-28T12:29:41;8.40;99.90
56542;DHT22;42438;53.174;6.730;2023-02-28T12:35:02;8.30;99.90
56542;DHT22;42438;53.174;6.730;2023-02-28T12:38:02;8.10;99.90
56542;DHT22;42438;53.174;6.730;2023-02-28T12:43:37;7.70;99.90
56542;DHT22;42438;53.174;6.730;2023-02-28T12:46:19;7.40;99.90
56542;DHT22;42438;53.174;6.730;2023-02-28T12:49:00;7.30;99.90
56542;DHT22;42438;53.174;6.730;2023-02-28T12:51:35;7.20;99.90
56542;DHT22;42438;53.174;6.730;2023-02-28T12:54:36;7.10;99.90
56542;DHT22;42438;53.174;6.730;2023-02-28T12:57:45;6.90;99.90
56542;DHT22;42438;53.174;6.730;2023-02-28T13:00:22;6.80;99.90
56542;DHT22;42438;53.174;6.730;2023-02-28T13:05:55;7.20;99.90
56542;DHT22;42438;53.174;6.730;2023-02-28T13:09:09;7.20;99.90
56542;DHT22;42438;53.174;6.730;2023-02-28T13:11:46;7.30;99.90
56542;DHT22;42438;53.174;6.730;2023-02-28T13:14:35;7.20;99.90
56542;DHT22;42438;53.174;6.730;2023-02-28T13:24:56;7.40;99.90
56542;DHT22;42438;53.174;6.730;2023-02-28T13:27:45;7.40;99.90
56542;DHT22;42438;53.174;6.730;2023-02-28T13:33:37;7.30;99.90
56542;DHT22;42438;53.174;6.730;2023-02-28T13:36:32;7.30;99.90
56542;DHT22;42438;53.174;6.730;2023-02-28T13:42:34;7.10;99.90
56542;DHT22;42438;53.174;6.730;2023-02-28T13:59:06;7.20;99.90
56542;DHT22;42438;53.174;6.730;2023-02-28T14:07:29;7.20;99.90
56542;DHT22;42438;53.174;6.730;2023-02-28T14:10:04;7.30;99.90
56542;DHT22;42438;53.174;6.730;2023-02-28T14:18:31;8.30;99.90
56542;DHT22;42438;53.174;6.730;2023-02-28T14:21:16;8.40;99.90
56542;DHT22;42438;53.174;6.730;2023-02-28T14:30:03;8.40;99.90
56542;DHT22;42438;53.174;6.730;2023-02-28T14:37:53;7.70;99.90
56542;DHT22;42438;53.174;6.730;2023-02-28T14:40:30;7.50;99.90
56542;DHT22;42438;53.174;6.730;2023-02-28T14:43:04;7.30;99.90
56542;DHT22;42438;53.174;6.730;2023-02-28T14:45:36;7.10;99.90
56542;DHT22;42438;53.174;6.730;2023-02-28T14:48:09;7.10;99.90
56542;DHT22;42438;53.174;6.730;2023-02-28T14:50:49;7.30;99.90
56542;DHT22;42438;53.174;6.730;2023-02-28T14:53:22;7.30;99.90
56542;DHT22;42438;53.174;6.730;2023-02-28T14:55:53;7.40;99.90
56542;DHT22;42438;53.174;6.730;2023-02-28T14:58:33;7.40;99.90
56542;DHT22;42438;53.174;6.730;2023-02-28T15:01:04;7.50;99.90
56542;DHT22;42438;53.174;6.730;2023-02-28T15:03:35;7.60;99.90
56542;DHT22;42438;53.174;6.730;2023-02-28T15:06:16;7.60;99.90
56542;DHT22;42438;53.174;6.730;2023-02-28T15:08:47;7.70;99.90
56542;DHT22;42438;53.174;6.730;2023-02-28T15:11:19;7.70;99.90
56542;DHT22;42438;53.174;6.730;2023-02-28T15:13:54;7.60;99.90
56542;DHT22;42438;53.174;6.730;2023-02-28T15:16:38;7.60;99.90
56542;DHT22;42438;53.174;6.730;2023-02-28T15:19:23;7.60;99.90
56542;DHT22;42438;53.174;6.730;2023-02-28T15:22:03;7.60;99.90
56542;DHT22;42438;53.174;6.730;2023-02-28T15:24:38;7.60;99.90
56542;DHT22;42438;53.174;6.730;2023-02-28T15:27:16;7.50;99.90
56542;DHT22;42438;53.174;6.730;2023-02-28T15:29:55;7.50;99.90
56542;DHT22;42438;53.174;6.730;2023-02-28T15:32:30;7.50;99.90
56542;DHT22;42438;53.174;6.730;2023-02-28T15:38:00;7.50;99.90
56542;DHT22;42438;53.174;6.730;2023-02-28T15:40:37;7.50;99.90
56542;DHT22;42438;53.174;6.730;2023-02-28T15:43:17;7.50;99.90
56542;DHT22;42438;53.174;6.730;2023-02-28T15:51:09;7.40;99.90
56542;DHT22;42438;53.174;6.730;2023-02-28T15:53:51;7.30;99.90
56542;DHT22;42438;53.174;6.730;2023-02-28T15:56:25;7.30;99.90
56542;DHT22;42438;53.174;6.730;2023-02-28T15:59:01;7.30;99.90
56542;DHT22;42438;53.174;6.730;2023-02-28T16:01:35;7.20;99.90
56542;DHT22;42438;53.174;6.730;2023-02-28T16:04:18;7.20;99.90
56542;DHT22;42438;53.174;6.730;2023-02-28T16:09:28;7.00;99.90
56542;DHT22;42438;53.174;6.730;2023-02-28T16:12:02;6.90;99.90
56542;DHT22;42438;53.174;6.730;2023-02-28T16:14:35;6.80;99.90
56542;DHT22;42438;53.174;6.730;2023-02-28T16:17:26;6.70;99.90
56542;DHT22;42438;53.174;6.730;2023-02-28T16:19:57;6.70;99.90
56542;DHT22;42438;53.174;6.730;2023-02-28T16:22:28;6.60;99.90
56542;DHT22;42438;53.174;6.730;2023-02-28T16:24:59;6.50;99.90
56542;DHT22;42438;53.174;6.730;2023-02-28T16:27:36;6.50;99.90
56542;DHT22;42438;53.174;6.730;2023-02-28T16:30:15;6.40;99.90
56542;DHT22;42438;53.174;6.730;2023-02-28T16:32:47;6.30;99.90
56542;DHT22;42438;53.174;6.730;2023-02-28T16:35:19;6.20;99.90
56542;DHT22;42438;53.174;6.730;2023-02-28T16:37:51;6.20;99.90
56542;DHT22;42438;53.174;6.730;2023-02-28T16:40:24;6.10;99.90
56542;DHT22;42438;53.174;6.730;2023-02-28T16:42:58;6.00;99.90
56542;DHT22;42438;53.174;6.730;2023-02-28T16:45:30;6.00;99.90
56542;DHT22;42438;53.174;6.730;2023-02-28T16:48:00;5.90;99.90
56542;DHT22;42438;53.174;6.730;2023-02-28T16:50:31;6.00;99.90
56542;DHT22;42438;53.174;6.730;2023-02-28T16:53:03;5.60;99.90
56542;DHT22;42438;53.174;6.730;2023-02-28T16:55:34;5.60;99.90
56542;DHT22;42438;53.174;6.730;2023-02-28T16:58:05;5.50;99.90
56542;DHT22;42438;53.174;6.730;2023-02-28T17:00:35;5.40;99.90
56542;DHT22;42438;53.174;6.730;2023-02-28T17:03:23;5.30;99.90
56542;DHT22;42438;53.174;6.730;2023-02-28T17:05:54;5.20;99.90
56542;DHT22;42438;53.174;6.730;2023-02-28T17:08:25;5.00;99.90
56542;DHT22;42438;53.174;6.730;2023-02-28T17:10:56;4.90;99.90
56542;DHT22;42438;53.174;6.730;2023-02-28T17:13:26;4.80;99.90
56542;DHT22;42438;53.174;6.730;2023-02-28T17:15:57;4.70;99.90
56542;DHT22;42438;53.174;6.730;2023-02-28T17:18:28;4.50;99.90
56542;DHT22;42438;53.174;6.730;2023-02-28T17:21:09;4.50;99.90
56542;DHT22;42438;53.174;6.730;2023-02-28T17:23:43;4.40;99.90
56542;DHT22;42438;53.174;6.730;2023-02-28T17:26:16;4.30;99.90
56542;DHT22;42438;53.174;6.730;2023-02-28T17:28:55;4.30;99.90
56542;DHT22;42438;53.174;6.730;2023-02-28T17:31:26;4.20;99.90
56542;DHT22;42438;53.174;6.730;2023-02-28T17:33:57;4.10;99.90
56542;DHT22;42438;53.174;6.730;2023-02-28T17:36:28;4.00;99.90
56542;DHT22;42438;53.174;6.730;2023-02-28T17:38:59;4.00;99.90
56542;DHT22;42438;53.174;6.730;2023-02-28T17:41:30;3.90;99.90
56542;DHT22;42438;53.174;6.730;2023-02-28T17:44:01;3.60;99.90
56542;DHT22;42438;53.174;6.730;2023-02-28T17:46:31;3.40;99.90
56542;DHT22;42438;53.174;6.730;2023-02-28T17:49:03;3.50;99.90
56542;DHT22;42438;53.174;6.730;2023-02-28T17:51:33;3.50;99.90
56542;DHT22;42438;53.174;6.730;2023-02-28T17:54:04;3.40;99.90
56542;DHT22;42438;53.174;6.730;2023-02-28T17:56:35;3.10;99.90
56542;DHT22;42438;53.174;6.730;2023-02-28T17:59:08;3.10;99.90
56542;DHT22;42438;53.174;6.730;2023-02-28T18:01:39;4.20;99.90
56542;DHT22;42438;53.174;6.730;2023-02-28T18:04:10;2.80;99.90
56542;DHT22;42438;53.174;6.730;2023-02-28T18:06:43;3.00;99.90
56542;DHT22;42438;53.174;6.730;2023-02-28T18:09:22;2.90;99.90
56542;DHT22;42438;53.174;6.730;2023-02-28T18:11:54;2.90;99.90
56542;DHT22;42438;53.174;6.730;2023-02-28T18:14:26;2.80;99.90
56542;DHT22;42438;53.174;6.730;2023-02-28T18:16:57;2.70;99.90
56542;DHT22;42438;53.174;6.730;2023-02-28T18:19:27;2.70;99.90
56542;DHT22;42438;53.174;6.730;2023-02-28T18:21:58;2.80;99.90
56542;DHT22;42438;53.174;6.730;2023-02-28T18:24:30;2.70;99.90
56542;DHT22;42438;53.174;6.730;2023-02-28T18:27:01;2.70;99.90
56542;DHT22;42438;53.174;6.730;2023-02-28T18:29:32;3.20;99.90
56542;DHT22;42438;53.174;6.730;2023-02-28T18:32:03;2.80;99.90
56542;DHT22;42438;53.174;6.730;2023-02-28T18:34:35;2.30;99.90
56542;DHT22;42438;53.174;6.730;2023-02-28T18:37:06;2.20;99.90
56542;DHT22;42438;53.174;6.730;2023-02-28T18:39:37;2.10;99.90
56542;DHT22;42438;53.174;6.730;2023-02-28T18:42:07;2.40;99.90
56542;DHT22;42438;53.174;6.730;2023-02-28T18:44:38;2.10;99.90
56542;DHT22;42438;53.174;6.730;2023-02-28T18:47:09;1.90;99.90
56542;DHT22;42438;53.174;6.730;2023-02-28T18:49:40;2.00;99.90
56542;DHT22;42438;53.174;6.730;2023-02-28T18:52:11;2.00;99.90
56542;DHT22;42438;53.174;6.730;2023-02-28T18:54:41;2.10;99.90
56542;DHT22;42438;53.174;6.730;2023-02-28T18:57:12;2.10;99.90
56542;DHT22;42438;53.174;6.730;2023-02-28T18:59:42;2.10;99.90
56542;DHT22;42438;53.174;6.730;2023-02-28T19:02:13;2.20;99.90
56542;DHT22;42438;53.174;6.730;2023-02-28T19:04:44;2.10;99.90
56542;DHT22;42438;53.174;6.730;2023-02-28T19:07:14;2.20;99.90
56542;DHT22;42438;53.174;6.730;2023-02-28T19:09:45;2.10;99.90
56542;DHT22;42438;53.174;6.730;2023-02-28T19:12:16;2.10;99.90
56542;DHT22;42438;53.174;6.730;2023-02-28T19:14:50;2.10;99.90
56542;DHT22;42438;53.174;6.730;2023-02-28T19:17:21;2.10;99.90
56542;DHT22;42438;53.174;6.730;2023-02-28T19:19:51;2.10;99.90
56542;DHT22;42438;53.174;6.730;2023-02-28T19:22:22;2.00;99.90